OIMB  Birjand Airport

Add Bookmark

Birjand, Iran

Status
Operational
Latitude Longitude
32° 53' 53" N 59° 15' 57" E
32.898056 59.266111
Local (DST + 5) UTC (GMT + 4)
Sep 15, 2014 06:31 Sep 15, 2014 02:01
Sunrise-Sunset Local UTC
Begin Civil Twilight 05:50 01:20
Sunrise 06:15 01:45
Sunset 06:40 14:10
End Civil Twilight 07:05 14:35

Current Weather

METAR Observed VFR
OIMB 150100Z 09004KT CAVOK 14/M16 Q1015 Mon, Sep 15, 2014 @ 01:00 UTC
(1 Hour, 1 Minute ago)
Visual Flight Rules
Wind Visibility Clouds Conditions
090° at 4 knots (7 kph) 10 km or more
  • Clear skies
  • No significant weather
Temperatures Readings Precipitation
Current Temp 14°C (57°F)
Dewpoint -16°C (3°F)
Humidity 11%
Altimeter 29.97"Hg
Sea Level Pressure 1015mb
Field Elevation 4891.73'
None Recorded

Additional weather within a 185.2km radius of OIMB

Map ICAO Location
OIMD 170.2km N (342°)

24 Hour Weather History

Loading
-

24 Hour Weather Graphs

Loading
-

CheckWX.com is intended as a tool to help pilots better visualize weather data. It is not intended as a substitute for an official weather briefing obtained from a Flight Service Station. CheckWX.com does not meet the FAA requirements for an official pre-flight weather briefing. Therefore, it's important that pilots still call and obtain an official FSS pre-flight weather briefing.